Palermo, ND (58769)

1:35 PM CDT on October 23, 2014 (GMT -0500)
Stanley | Change Station
CLOSE
Current Station
Airport
Location: Stanley,
Elevation: 2244 ft
Nearby Weather Stations

Elev 2244 ft 48.30 °N, 102.41 °W | Updated 20 minutes ago

Clear
Clear
63 °F
Feels Like 63 °F
N
14
Wind Variable Wind from SW

Today
High -- | Low -- °F
--% Chance of Precip.
Yesterday
High -- | Low -- °F
Precip. -- in
8:20 AM 6:44 PM
Waning Crescent, 0% visible
Pressure 29.80 in
Visibility 10.0 miles
Clouds Clear
Dew Point 32 °F
Humidity 32%
Rainfall 0.00 in
Snow Depth Not available.
UV 3 out of 12
Pollen 2.30 out of 12
Air Quality Not available.
Flu Activity Local Activity
METAR K08D 231815Z AUTO 22012KT 10SM CLR 17/00 A2980 RMK AO2

More Conditions Fewer Conditions

Pressure 29.80 in
Visibility 10.0 miles
Clouds Clear
Dew Point 32 °F
Humidity 32%
Rainfall 0.00 in
Snow Depth Not available.
UV 3 out of 12
Pollen 2.30 out of 12
Air Quality Not available.
Flu Activity Local Activity
METAR K08D 231815Z AUTO 22012KT 10SM CLR 17/00 A2980 RMK AO2

More Conditions Fewer Conditions

10-Day Weather Forecast

Almanac

Astronomy

Oct. 23, 2014 Rise Set
Actual Time 8:20 AM CDT 6:44 PM CDT
Civil Twilight 7:48 AM CDT 7:16 PM CDT
Nautical Twilight 7:12 AM CDT 7:53 PM CDT
Astronomical Twilight 6:36 AM CDT 8:29 PM CDT
Moon 8:01 AM CDT 6:47 PM CDT
Length of Visible Light 11h 28m
Length of Day
10h 24m
Tomorrow will be 3m 19s shorter.
Waning Crescent, 0% of the Moon is Illuminated
Today
Waning Crescent
Oct 23
New
Oct 30
First Quarter
Nov 6
Full
Nov 14
Last Quarter

Today's Extremes

State Highs State Lows

Community

WunderPhotos

Upload Photos

1,764,338 photos uploaded!

WunderBlogs® & News

Nearby

Snow Depth

Station Depth Elevation
No new snow has been reported.

Earthquake Activity

City Distance Mag. Time & Date
No recent earthquake activity has been reported nearby.
Minimum magnitude displayed is 2.5.

Coastal Water Temperatures

Place Temperature
No Stations Reporting

Nearby Weather Stations